createdAt,value
2019-05-06T00:02:04.593Z,2.47
2019-05-06T00:04:36.114Z,2.60
2019-05-06T00:07:08.007Z,2.60
2019-05-06T00:09:39.676Z,2.10
2019-05-06T00:12:11.725Z,2.10
2019-05-06T00:14:43.775Z,2.08
2019-05-06T00:17:15.940Z,2.33
2019-05-06T00:19:47.642Z,2.02
2019-05-06T00:22:19.691Z,2.45
2019-05-06T00:24:58.295Z,2.40
2019-05-06T00:27:55.277Z,2.83
2019-05-06T00:30:27.231Z,2.02
2019-05-06T00:32:59.064Z,2.30
2019-05-06T00:35:30.766Z,2.47
2019-05-06T00:38:04.376Z,2.10
2019-05-06T00:40:37.909Z,3.10
2019-05-06T00:43:10.583Z,2.52
2019-05-06T00:45:44.315Z,2.47
2019-05-06T00:48:16.225Z,2.95
2019-05-06T00:50:47.790Z,3.62
2019-05-06T00:53:23.830Z,3.67
2019-05-06T00:55:56.057Z,3.83
2019-05-06T00:58:27.906Z,3.45
2019-05-06T01:00:59.672Z,3.33
2019-05-06T01:03:31.461Z,3.70
2019-05-06T01:06:04.029Z,4.75
2019-05-06T01:08:36.028Z,5.10
2019-05-06T01:11:08.220Z,4.70
2019-05-06T01:13:49.508Z,4.70
2019-05-06T01:16:21.961Z,4.65
2019-05-06T01:18:54.209Z,4.33
2019-05-06T01:21:25.961Z,4.60
2019-05-06T01:23:57.724Z,3.70
2019-05-06T01:26:29.512Z,4.30
2019-05-06T01:29:03.737Z,4.08
2019-05-06T01:31:42.703Z,4.42
2019-05-06T01:34:09.099Z,4.40
2019-05-06T01:36:40.917Z,14.43
2019-05-06T01:39:34.381Z,19.55
2019-05-06T01:42:24.611Z,13.30
2019-05-06T01:44:56.628Z,10.15
2019-05-06T01:47:28.516Z,6.70
2019-05-06T01:50:00.337Z,8.98
2019-05-06T01:52:34.362Z,5.90
2019-05-06T01:55:05.639Z,4.53
2019-05-06T01:57:37.436Z,4.83
2019-05-06T02:00:14.130Z,4.40
2019-05-06T02:02:45.701Z,5.28
2019-05-06T02:05:17.480Z,5.33
2019-05-06T02:07:49.307Z,4.92
2019-05-06T02:10:23.711Z,5.70
2019-05-06T02:12:56.254Z,4.72
2019-05-06T02:15:27.866Z,3.65
2019-05-06T02:17:59.397Z,4.20
2019-05-06T02:20:31.328Z,3.42
2019-05-06T02:23:10.739Z,3.65
2019-05-06T02:25:46.354Z,3.27
2019-05-06T02:28:17.808Z,3.50
2019-05-06T02:31:08.621Z,3.70
2019-05-06T02:34:05.327Z,3.58
2019-05-06T02:36:45.533Z,3.00
2019-05-06T02:39:17.281Z,3.17
2019-05-06T02:41:49.156Z,3.17
2019-05-06T02:44:23.729Z,3.58
2019-05-06T02:47:03.328Z,3.17
2019-05-06T02:50:00.053Z,3.67
2019-05-06T02:52:32.928Z,4.00
2019-05-06T02:55:06.507Z,3.98
2019-05-06T02:57:39.609Z,3.83
2019-05-06T03:00:15.352Z,3.37
2019-05-06T03:02:48.198Z,3.95
2019-05-06T03:05:23.714Z,4.20
2019-05-06T03:07:57.618Z,4.37
2019-05-06T03:10:29.122Z,4.12
2019-05-06T03:13:03.032Z,4.50
2019-05-06T03:15:34.663Z,5.12
2019-05-06T03:18:06.269Z,4.00
2019-05-06T03:20:56.014Z,3.92
2019-05-06T03:23:30.491Z,3.87
2019-05-06T03:26:03.754Z,3.35
2019-05-06T03:28:36.110Z,3.15
2019-05-06T03:31:08.384Z,3.45
2019-05-06T03:34:03.385Z,3.10
2019-05-06T03:36:24.432Z,3.50
2019-05-06T03:38:48.532Z,4.85
2019-05-06T03:41:26.075Z,10.13
2019-05-06T03:43:54.550Z,6.50
2019-05-06T03:46:48.352Z,6.90
2019-05-06T03:51:56.037Z,9.98
2019-05-06T03:54:24.588Z,9.48
2019-05-06T03:56:57.168Z,5.00
2019-05-06T03:59:33.481Z,8.65
2019-05-06T04:02:05.420Z,6.85
2019-05-06T04:04:37.410Z,7.87
2019-05-06T04:07:09.191Z,6.45
2019-05-06T04:09:43.969Z,7.03
2019-05-06T04:12:15.700Z,5.55
2019-05-06T04:14:47.436Z,6.85
2019-05-06T04:17:37.033Z,6.08
2019-05-06T04:20:18.422Z,6.87
2019-05-06T04:23:08.665Z,6.62
2019-05-06T04:25:58.459Z,5.20
2019-05-06T04:28:34.185Z,5.37
2019-05-06T04:31:07.249Z,7.00
2019-05-06T04:33:38.929Z,6.55
2019-05-06T04:36:13.140Z,4.20
2019-05-06T04:38:44.183Z,2.40
2019-05-06T04:41:16.193Z,2.50
2019-05-06T04:43:48.341Z,2.52
2019-05-06T04:46:23.363Z,2.90
2019-05-06T04:48:54.174Z,3.22
2019-05-06T04:51:27.105Z,2.70
2019-05-06T04:53:58.946Z,1.70
2019-05-06T04:56:33.218Z,1.72
2019-05-06T04:59:06.383Z,2.10
2019-05-06T05:01:38.005Z,2.90
2019-05-06T05:04:26.925Z,3.47
2019-05-06T05:06:43.445Z,2.90
2019-05-06T05:09:17.427Z,2.70
2019-05-06T05:11:53.744Z,2.77
2019-05-06T05:14:53.690Z,2.80
2019-05-06T05:17:47.062Z,2.85
2019-05-06T05:20:19.071Z,2.42
2019-05-06T05:22:52.741Z,2.95
2019-05-06T05:27:54.433Z,3.00
2019-05-06T05:30:26.225Z,3.72
2019-05-06T05:32:58.019Z,3.65
2019-05-06T05:35:31.992Z,3.77
2019-05-06T05:38:03.641Z,3.65
2019-05-06T05:40:35.860Z,3.90
2019-05-06T05:43:29.611Z,3.83
2019-05-06T05:46:02.885Z,3.85
2019-05-06T05:48:52.475Z,4.53
2019-05-06T05:51:24.965Z,4.42
2019-05-06T05:53:56.803Z,4.25
2019-05-06T05:56:29.010Z,5.58
2019-05-06T05:59:03.032Z,4.10
2019-05-06T06:01:34.340Z,5.05
2019-05-06T06:04:06.280Z,6.08
2019-05-06T06:06:38.155Z,7.10
2019-05-06T06:09:10.017Z,4.90
2019-05-06T06:12:02.829Z,3.62
2019-05-06T06:14:55.937Z,4.50
2019-05-06T06:17:45.271Z,4.40
2019-05-06T06:20:35.084Z,4.00
2019-05-06T06:23:13.559Z,4.47
2019-05-06T06:25:45.195Z,4.22
2019-05-06T06:28:16.913Z,4.08
2019-05-06T06:31:12.071Z,4.67
2019-05-06T06:33:44.001Z,4.80
2019-05-06T06:36:46.470Z,3.50
2019-05-06T06:39:32.718Z,4.03
2019-05-06T06:42:04.403Z,3.90
2019-05-06T06:44:36.598Z,4.00
2019-05-06T06:47:08.334Z,4.00
2019-05-06T06:49:42.444Z,3.75
2019-05-06T06:52:14.874Z,4.17
2019-05-06T06:54:46.676Z,3.75
2019-05-06T06:57:37.383Z,1.92
2019-05-06T07:00:33.574Z,1.70
2019-05-06T07:03:14.995Z,1.35
2019-05-06T07:06:02.337Z,1.00
2019-05-06T07:08:37.602Z,1.30
2019-05-06T07:11:07.923Z,0.80
2019-05-06T07:13:43.456Z,1.20
2019-05-06T07:16:15.465Z,1.00
2019-05-06T07:18:46.898Z,1.22
2019-05-06T07:21:24.416Z,1.30
2019-05-06T07:23:56.127Z,1.50
2019-05-06T07:26:31.863Z,1.20
2019-05-06T07:29:13.640Z,1.05
2019-05-06T07:31:37.145Z,1.40
2019-05-06T07:34:08.887Z,1.12
2019-05-06T07:36:42.958Z,0.85
2019-05-06T07:39:15.573Z,1.20
2019-05-06T07:41:53.473Z,1.70
2019-05-06T07:44:52.910Z,0.80
2019-05-06T07:47:33.118Z,0.62
2019-05-06T07:50:05.703Z,0.80
2019-05-06T07:52:37.677Z,0.50
2019-05-06T07:55:11.898Z,0.93
2019-05-06T07:57:43.499Z,0.80
2019-05-06T08:00:16.243Z,0.80
2019-05-06T08:02:47.935Z,0.70
2019-05-06T08:05:19.676Z,0.50
2019-05-06T08:07:55.068Z,0.42
2019-05-06T08:12:56.230Z,0.50
2019-05-06T08:15:28.127Z,0.40
2019-05-06T08:17:59.911Z,0.47
2019-05-06T08:20:37.506Z,0.70
2019-05-06T08:23:19.022Z,0.60
2019-05-06T08:25:54.361Z,0.80
2019-05-06T08:28:36.843Z,0.65
2019-05-06T08:30:58.823Z,0.60
2019-05-06T08:33:32.761Z,0.47
2019-05-06T08:36:11.573Z,0.65
2019-05-06T08:38:59.475Z,0.47
2019-05-06T08:41:33.198Z,0.70
2019-05-06T08:44:04.684Z,0.90
2019-05-06T08:46:36.613Z,1.35
2019-05-06T08:49:08.339Z,1.20
2019-05-06T08:51:48.310Z,1.85
2019-05-06T08:54:43.358Z,1.70
2019-05-06T08:57:15.253Z,1.17
2019-05-06T08:59:46.834Z,1.30
2019-05-06T09:02:19.407Z,2.05
2019-05-06T09:04:51.830Z,1.37
2019-05-06T09:07:23.973Z,1.77
2019-05-06T09:09:55.726Z,1.60
2019-05-06T09:12:27.452Z,2.17
2019-05-06T09:14:59.106Z,1.72
2019-05-06T09:17:32.899Z,1.17
2019-05-06T09:20:04.801Z,1.20
2019-05-06T09:22:36.716Z,1.27
2019-05-06T09:25:08.748Z,1.47
2019-05-06T09:27:53.788Z,1.22
2019-05-06T09:30:53.387Z,1.40
2019-05-06T09:33:33.024Z,1.17
2019-05-06T09:36:04.280Z,1.62
2019-05-06T09:38:35.835Z,1.55
2019-05-06T09:41:07.432Z,1.50
2019-05-06T09:43:38.910Z,1.45
2019-05-06T09:46:12.753Z,1.70
2019-05-06T09:49:03.311Z,2.40
2019-05-06T09:51:35.025Z,6.17
2019-05-06T09:54:23.540Z,12.90
2019-05-06T09:57:02.505Z,2.70
2019-05-06T09:59:34.976Z,2.20
2019-05-06T10:02:06.663Z,1.80
2019-05-06T10:04:38.616Z,2.37
2019-05-06T10:07:11.883Z,3.20
2019-05-06T10:09:44.023Z,8.43
2019-05-06T10:12:15.461Z,6.58
2019-05-06T10:14:47.365Z,8.60
2019-05-06T10:17:19.178Z,5.47
2019-05-06T10:19:51.131Z,5.60
2019-05-06T10:22:23.365Z,5.33
2019-05-06T10:24:55.240Z,7.17
2019-05-06T10:27:28.296Z,3.67
2019-05-06T10:30:03.490Z,2.70
2019-05-06T10:32:49.443Z,2.65
2019-05-06T10:35:22.501Z,3.00
2019-05-06T10:38:44.745Z,2.60
2019-05-06T10:41:22.363Z,3.20
2019-05-06T10:44:46.631Z,2.92
2019-05-06T10:47:18.797Z,3.20
2019-05-06T10:49:52.810Z,4.12
2019-05-06T10:54:58.438Z,3.00
2019-05-06T10:57:40.559Z,3.15
2019-05-06T11:00:13.256Z,2.75
2019-05-06T11:02:54.370Z,4.47
2019-05-06T11:05:25.916Z,4.45
2019-05-06T11:07:57.475Z,4.20
2019-05-06T11:10:38.040Z,3.25
2019-05-06T11:13:03.471Z,2.80
2019-05-06T11:15:35.330Z,2.22
2019-05-06T11:18:07.033Z,2.15
2019-05-06T11:20:38.671Z,2.55
2019-05-06T11:23:10.299Z,3.87
2019-05-06T11:25:43.153Z,4.83
2019-05-06T11:31:37.261Z,2.40
2019-05-06T11:34:26.812Z,2.33
2019-05-06T11:37:16.511Z,3.10
2019-05-06T11:39:48.809Z,2.12
2019-05-06T11:44:54.545Z,1.60
2019-05-06T11:47:26.460Z,1.92
2019-05-06T11:49:58.883Z,1.80
2019-05-06T11:52:30.934Z,1.80
2019-05-06T11:55:02.772Z,1.60
2019-05-06T11:57:35.906Z,1.98
2019-05-06T12:02:41.397Z,10.50
2019-05-06T12:05:12.450Z,2.95
2019-05-06T12:08:00.384Z,3.63
2019-05-06T12:10:17.633Z,1.67
2019-05-06T12:12:49.572Z,3.08
2019-05-06T12:15:23.018Z,2.37
2019-05-06T12:17:55.968Z,1.95
2019-05-06T12:20:27.647Z,2.10
2019-05-06T12:22:59.219Z,1.60
2019-05-06T12:25:30.857Z,1.75
2019-05-06T12:28:03.151Z,2.00
2019-05-06T12:30:34.932Z,2.00
2019-05-06T12:33:38.080Z,2.10
2019-05-06T12:36:22.292Z,2.20
2019-05-06T12:39:16.014Z,2.92
2019-05-06T12:42:05.712Z,2.58
2019-05-06T12:44:38.942Z,2.60
2019-05-06T12:47:34.808Z,2.15
2019-05-06T12:50:08.237Z,2.40
2019-05-06T12:52:39.873Z,1.65
2019-05-06T12:55:20.709Z,2.47
2019-05-06T12:57:45.458Z,3.00
2019-05-06T13:00:17.453Z,2.60
2019-05-06T13:02:49.590Z,2.73
2019-05-06T13:05:21.457Z,2.70
2019-05-06T13:07:52.956Z,2.83
2019-05-06T13:10:24.788Z,3.25
2019-05-06T13:13:01.871Z,2.77
2019-05-06T13:15:33.944Z,2.83
2019-05-06T13:18:07.004Z,2.72
2019-05-06T13:20:39.783Z,1.57
2019-05-06T13:23:39.880Z,2.25
2019-05-06T13:26:12.907Z,2.00
2019-05-06T13:28:49.540Z,1.72
2019-05-06T13:31:24.999Z,1.60
2019-05-06T13:34:14.319Z,1.75
2019-05-06T13:36:46.256Z,2.00
2019-05-06T13:39:18.374Z,2.67
2019-05-06T13:41:50.070Z,1.85
2019-05-06T13:44:22.770Z,1.92
2019-05-06T13:46:55.693Z,1.85
2019-05-06T13:49:44.854Z,2.40
2019-05-06T13:52:22.806Z,2.52
2019-05-06T13:54:54.052Z,2.15
2019-05-06T13:57:28.829Z,2.00
2019-05-06T13:59:59.053Z,1.72
2019-05-06T14:02:43.446Z,1.95
2019-05-06T14:05:14.468Z,1.72
2019-05-06T14:07:46.513Z,1.72
2019-05-06T14:10:18.400Z,1.65
2019-05-06T14:12:50.197Z,1.80
2019-05-06T14:15:23.268Z,1.90
2019-05-06T14:17:55.488Z,1.98
2019-05-06T14:20:27.205Z,2.05
2019-05-06T14:22:59.150Z,2.00
2019-05-06T14:25:49.406Z,1.75
2019-05-06T14:28:43.177Z,2.10
